JFA57F LEIB-EGWU
Flight info
| Callsign | JFA57F |
|---|---|
| Flight time | 2h 5m |
| Altitude | 40000 |
| Route | EPAMA N856 UMURE N863 GIROM DCT AGN DCT SECHE DCT UVELI DCT CNA DCT MANAK UY110 REVTU UP87 ROXOG |
| Aircraft | PC24/M-SBDGIRWY/LB2 |
Departure
| Time | 2026-05-04 14:14 |
|---|---|
| Airport | Ibiza Airport (LEIB) |
Arrival
| Time | 2026-05-04 16:20 |
|---|---|
| Airport | RAF Northolt (EGWU) |
| Time | Latitude | Longitude | Altitude | Speed | Heading |
|---|---|---|---|---|---|
| 2026-05-04 14:07 | 38.87752 | 1.37504 | 23 ft | 0 kts | 152° |
| 2026-05-04 14:10 | 38.87749 | 1.37506 | 23 ft | 4 kts | 152° |
| 2026-05-04 14:10 | 38.87678 | 1.37508 | 23 ft | 15 kts | 170° |
| 2026-05-04 14:10 | 38.87593 | 1.37597 | 23 ft | 16 kts | 76° |
| 2026-05-04 14:11 | 38.87651 | 1.37746 | 25 ft | 22 kts | 62° |
| 2026-05-04 14:11 | 38.87838 | 1.38199 | 24 ft | 35 kts | 63° |
| 2026-05-04 14:11 | 38.87959 | 1.38487 | 23 ft | 37 kts | 59° |
| 2026-05-04 14:12 | 38.87999 | 1.38713 | 23 ft | 13 kts | 162° |
| 2026-05-04 14:12 | 38.87993 | 1.38716 | 23 ft | 0 kts | 163° |
| 2026-05-04 14:13 | 38.87966 | 1.38720 | 23 ft | 12 kts | 179° |
| 2026-05-04 14:13 | 38.87857 | 1.38675 | 22 ft | 21 kts | 225° |
| 2026-05-04 14:13 | 38.87787 | 1.38522 | 22 ft | 27 kts | 242° |
| 2026-05-04 14:13 | 38.87568 | 1.38005 | 25 ft | 106 kts | 239° |
| 2026-05-04 14:14 | 38.87140 | 1.36955 | 364 ft | 144 kts | 243° |
| 2026-05-04 14:14 | 38.86193 | 1.34517 | 2231 ft | 169 kts | 242° |
| 2026-05-04 14:14 | 38.85646 | 1.33109 | 3130 ft | 182 kts | 242° |
| 2026-05-04 14:15 | 38.84462 | 1.30075 | 5002 ft | 195 kts | 243° |
| 2026-05-04 14:15 | 38.83978 | 1.26546 | 6645 ft | 213 kts | 273° |
| 2026-05-04 14:16 | 38.85174 | 1.23007 | 8148 ft | 228 kts | 305° |
| 2026-05-04 14:16 | 38.86392 | 1.21654 | 8931 ft | 237 kts | 319° |
| 2026-05-04 14:17 | 38.89207 | 1.19046 | 9940 ft | 262 kts | 318° |
| 2026-05-04 14:17 | 38.90731 | 1.17706 | 9957 ft | 270 kts | 325° |
| 2026-05-04 14:17 | 38.94400 | 1.16479 | 10192 ft | 271 kts | 355° |
| 2026-05-04 14:18 | 38.95651 | 1.16576 | 10664 ft | 275 kts | 3° |
| 2026-05-04 14:18 | 38.99510 | 1.17786 | 12019 ft | 292 kts | 9° |
| 2026-05-04 14:19 | 39.03508 | 1.19103 | 13356 ft | 299 kts | 9° |
| 2026-05-04 14:19 | 39.05533 | 1.19775 | 14009 ft | 302 kts | 9° |
| 2026-05-04 14:19 | 39.07581 | 1.20452 | 14622 ft | 306 kts | 9° |
| 2026-05-04 14:19 | 39.09661 | 1.21138 | 15247 ft | 312 kts | 9° |
| 2026-05-04 14:20 | 39.11792 | 1.21842 | 15871 ft | 322 kts | 9° |
| 2026-05-04 14:20 | 39.14018 | 1.22577 | 16329 ft | 336 kts | 9° |
| 2026-05-04 14:20 | 39.16309 | 1.23340 | 16793 ft | 344 kts | 9° |
| 2026-05-04 14:21 | 39.20952 | 1.24886 | 17786 ft | 351 kts | 8° |
| 2026-05-04 14:21 | 39.23332 | 1.25674 | 18308 ft | 355 kts | 8° |
| 2026-05-04 14:21 | 39.25766 | 1.26484 | 18785 ft | 358 kts | 8° |
| 2026-05-04 14:21 | 39.28161 | 1.27282 | 19242 ft | 362 kts | 8° |
| 2026-05-04 14:22 | 39.30626 | 1.28100 | 19731 ft | 371 kts | 8° |
| 2026-05-04 14:22 | 39.33155 | 1.28941 | 20225 ft | 379 kts | 8° |
| 2026-05-04 14:22 | 39.35732 | 1.29803 | 20725 ft | 386 kts | 8° |
| 2026-05-04 14:22 | 39.38357 | 1.30680 | 21185 ft | 393 kts | 8° |
| 2026-05-04 14:23 | 39.43693 | 1.32465 | 21959 ft | 398 kts | 8° |
| 2026-05-04 14:23 | 39.46382 | 1.33365 | 22353 ft | 401 kts | 8° |
| 2026-05-04 14:23 | 39.49095 | 1.34272 | 22760 ft | 404 kts | 8° |
| 2026-05-04 14:24 | 39.51808 | 1.35184 | 23497 ft | 401 kts | 8° |
| 2026-05-04 14:24 | 39.54490 | 1.36086 | 24198 ft | 398 kts | 8° |
| 2026-05-04 14:24 | 39.57179 | 1.36984 | 24725 ft | 400 kts | 8° |
| 2026-05-04 14:24 | 39.59894 | 1.37673 | 25249 ft | 394 kts | 358° |
| 2026-05-04 14:25 | 39.62616 | 1.37730 | 25748 ft | 389 kts | 348° |
| 2026-05-04 14:25 | 39.68007 | 1.37015 | 26751 ft | 392 kts | 346° |
| 2026-05-04 14:25 | 39.70728 | 1.36663 | 27258 ft | 394 kts | 346° |
| 2026-05-04 14:26 | 39.73470 | 1.36296 | 27677 ft | 398 kts | 346° |
| 2026-05-04 14:26 | 39.76240 | 1.35924 | 28112 ft | 402 kts | 346° |
| 2026-05-04 14:26 | 39.79015 | 1.35559 | 28743 ft | 399 kts | 346° |
| 2026-05-04 14:26 | 39.81762 | 1.35200 | 29452 ft | 394 kts | 346° |
| 2026-05-04 14:27 | 39.84473 | 1.34838 | 30142 ft | 390 kts | 345° |
| 2026-05-04 14:27 | 39.87154 | 1.34479 | 30754 ft | 385 kts | 345° |
| 2026-05-04 14:27 | 39.89798 | 1.34126 | 31376 ft | 379 kts | 345° |
| 2026-05-04 14:27 | 39.92428 | 1.33773 | 31804 ft | 381 kts | 345° |
| 2026-05-04 14:28 | 39.95071 | 1.33416 | 32182 ft | 384 kts | 345° |
| 2026-05-04 14:28 | 39.97733 | 1.33061 | 32572 ft | 385 kts | 345° |
| 2026-05-04 14:28 | 40.00406 | 1.32706 | 32966 ft | 387 kts | 345° |
| 2026-05-04 14:28 | 40.03087 | 1.32347 | 33373 ft | 388 kts | 345° |
| 2026-05-04 14:29 | 40.08466 | 1.31625 | 34102 ft | 390 kts | 345° |
| 2026-05-04 14:29 | 40.13896 | 1.30896 | 34681 ft | 394 kts | 345° |
| 2026-05-04 14:30 | 40.16630 | 1.30529 | 34974 ft | 396 kts | 345° |
| 2026-05-04 14:30 | 40.19372 | 1.30161 | 35272 ft | 397 kts | 345° |
| 2026-05-04 14:30 | 40.24801 | 1.29433 | 36068 ft | 392 kts | 345° |
| 2026-05-04 14:31 | 40.27503 | 1.29070 | 36497 ft | 389 kts | 344° |
| 2026-05-04 14:31 | 40.32836 | 1.28349 | 37373 ft | 382 kts | 344° |
| 2026-05-04 14:32 | 40.38068 | 1.27642 | 38280 ft | 374 kts | 344° |
| 2026-05-04 14:32 | 40.40651 | 1.27290 | 38568 ft | 375 kts | 343° |
| 2026-05-04 14:32 | 40.43250 | 1.26933 | 38782 ft | 376 kts | 344° |
| 2026-05-04 14:32 | 40.45856 | 1.26582 | 39009 ft | 377 kts | 344° |
| 2026-05-04 14:33 | 40.48466 | 1.26230 | 39239 ft | 377 kts | 345° |
| 2026-05-04 14:33 | 40.51079 | 1.25875 | 39473 ft | 377 kts | 345° |
| 2026-05-04 14:33 | 40.53700 | 1.25517 | 39623 ft | 381 kts | 345° |
| 2026-05-04 14:33 | 40.56354 | 1.25154 | 39746 ft | 385 kts | 345° |
| 2026-05-04 14:34 | 40.59034 | 1.24790 | 39874 ft | 388 kts | 345° |
| 2026-05-04 14:34 | 40.64482 | 1.24046 | 39925 ft | 401 kts | 346° |
| 2026-05-04 14:35 | 40.70078 | 1.23283 | 39928 ft | 413 kts | 346° |
| 2026-05-04 14:35 | 40.75863 | 1.22493 | 39926 ft | 423 kts | 346° |
| 2026-05-04 14:36 | 40.81779 | 1.21683 | 39927 ft | 432 kts | 346° |
| 2026-05-04 14:36 | 40.87804 | 1.20857 | 39936 ft | 438 kts | 347° |
| 2026-05-04 14:37 | 40.93854 | 1.20029 | 39935 ft | 435 kts | 347° |
| 2026-05-04 14:37 | 40.99830 | 1.19206 | 39937 ft | 428 kts | 347° |
| 2026-05-04 14:38 | 41.05750 | 1.18385 | 39937 ft | 429 kts | 347° |
| 2026-05-04 14:38 | 41.11715 | 1.17561 | 39949 ft | 432 kts | 347° |
| 2026-05-04 14:39 | 41.17702 | 1.16838 | 39947 ft | 431 kts | 348° |
| 2026-05-04 14:39 | 41.23664 | 1.16202 | 39949 ft | 429 kts | 348° |
| 2026-05-04 14:40 | 41.32593 | 1.15272 | 39937 ft | 433 kts | 348° |
| 2026-05-04 14:40 | 41.38621 | 1.14636 | 39933 ft | 434 kts | 348° |
| 2026-05-04 14:41 | 41.44608 | 1.14011 | 39918 ft | 429 kts | 348° |
| 2026-05-04 14:42 | 41.56598 | 1.12745 | 39907 ft | 434 kts | 349° |
| 2026-05-04 14:42 | 41.62607 | 1.12110 | 39908 ft | 432 kts | 348° |
| 2026-05-04 14:43 | 41.68585 | 1.11476 | 39912 ft | 430 kts | 349° |
| 2026-05-04 14:43 | 41.74539 | 1.10844 | 39920 ft | 430 kts | 349° |
| 2026-05-04 14:44 | 41.80508 | 1.10209 | 39929 ft | 431 kts | 349° |
| 2026-05-04 14:44 | 41.86497 | 1.09572 | 39936 ft | 432 kts | 349° |
| 2026-05-04 14:45 | 41.92502 | 1.08931 | 39938 ft | 433 kts | 349° |
| 2026-05-04 14:45 | 41.98496 | 1.08292 | 39940 ft | 431 kts | 349° |
| 2026-05-04 14:46 | 42.04454 | 1.07653 | 39938 ft | 428 kts | 349° |
| 2026-05-04 14:46 | 42.10412 | 1.07011 | 39932 ft | 431 kts | 349° |
| 2026-05-04 14:47 | 42.16414 | 1.06368 | 39923 ft | 433 kts | 349° |
| 2026-05-04 14:47 | 42.22407 | 1.05723 | 39925 ft | 431 kts | 349° |
| 2026-05-04 14:48 | 42.28330 | 1.05083 | 39928 ft | 430 kts | 349° |
| 2026-05-04 14:48 | 42.34313 | 1.04435 | 39936 ft | 433 kts | 349° |
| 2026-05-04 14:49 | 42.40329 | 1.03785 | 39934 ft | 433 kts | 349° |
| 2026-05-04 14:49 | 42.46318 | 1.03136 | 39920 ft | 430 kts | 350° |
| 2026-05-04 14:50 | 42.52280 | 1.02486 | 39912 ft | 431 kts | 349° |
| 2026-05-04 14:50 | 42.58246 | 1.01836 | 39918 ft | 429 kts | 349° |
| 2026-05-04 14:51 | 42.64224 | 1.01181 | 39912 ft | 431 kts | 350° |
| 2026-05-04 14:51 | 42.70225 | 1.00528 | 39920 ft | 434 kts | 350° |
| 2026-05-04 14:52 | 42.76234 | 0.99870 | 39921 ft | 430 kts | 350° |
| 2026-05-04 14:52 | 42.82210 | 0.99209 | 39917 ft | 432 kts | 350° |
| 2026-05-04 14:53 | 42.88222 | 0.98551 | 39916 ft | 432 kts | 350° |
| 2026-05-04 14:53 | 42.94211 | 0.97890 | 39919 ft | 432 kts | 350° |
| 2026-05-04 14:54 | 43.00227 | 0.97224 | 39916 ft | 436 kts | 350° |
| 2026-05-04 14:54 | 43.06287 | 0.96555 | 39913 ft | 436 kts | 351° |
| 2026-05-04 14:55 | 43.12314 | 0.95887 | 39915 ft | 434 kts | 350° |
| 2026-05-04 14:55 | 43.18341 | 0.95215 | 39922 ft | 435 kts | 351° |
| 2026-05-04 14:56 | 43.24349 | 0.94548 | 39929 ft | 437 kts | 351° |
| 2026-05-04 14:56 | 43.30421 | 0.93869 | 39929 ft | 439 kts | 351° |
| 2026-05-04 14:57 | 43.36497 | 0.93197 | 39930 ft | 437 kts | 351° |
| 2026-05-04 14:57 | 43.42543 | 0.92513 | 39931 ft | 435 kts | 350° |
| 2026-05-04 14:58 | 43.48585 | 0.91835 | 39934 ft | 435 kts | 351° |
| 2026-05-04 14:58 | 43.54620 | 0.91157 | 39934 ft | 435 kts | 351° |
| 2026-05-04 14:59 | 43.60655 | 0.90476 | 39936 ft | 435 kts | 351° |
| 2026-05-04 15:00 | 43.69707 | 0.89454 | 39928 ft | 435 kts | 350° |
| 2026-05-04 15:00 | 43.75738 | 0.88771 | 39932 ft | 435 kts | 351° |
| 2026-05-04 15:01 | 43.84780 | 0.87744 | 39931 ft | 435 kts | 351° |
| 2026-05-04 15:01 | 43.90609 | 0.86064 | 39932 ft | 423 kts | 333° |
| 2026-05-04 15:02 | 43.95933 | 0.82690 | 39938 ft | 420 kts | 329° |
| 2026-05-04 15:02 | 44.01239 | 0.79280 | 39940 ft | 420 kts | 329° |
| 2026-05-04 15:03 | 44.06541 | 0.75846 | 39944 ft | 420 kts | 329° |
| 2026-05-04 15:03 | 44.11848 | 0.72412 | 39945 ft | 421 kts | 330° |
| 2026-05-04 15:04 | 44.17123 | 0.68987 | 39946 ft | 421 kts | 330° |
| 2026-05-04 15:04 | 44.22434 | 0.65534 | 39943 ft | 421 kts | 330° |
| 2026-05-04 15:05 | 44.27753 | 0.62067 | 39947 ft | 422 kts | 330° |
| 2026-05-04 15:05 | 44.33087 | 0.58585 | 39942 ft | 424 kts | 330° |
| 2026-05-04 15:06 | 44.38421 | 0.55097 | 39941 ft | 423 kts | 330° |
| 2026-05-04 15:07 | 44.46388 | 0.49864 | 39917 ft | 421 kts | 330° |
| 2026-05-04 15:07 | 44.51668 | 0.46356 | 39914 ft | 420 kts | 330° |
| 2026-05-04 15:08 | 44.56069 | 0.43436 | 39919 ft | 422 kts | 330° |
| 2026-05-04 15:08 | 44.61402 | 0.39890 | 39922 ft | 425 kts | 330° |
| 2026-05-04 15:09 | 44.66736 | 0.36335 | 39915 ft | 423 kts | 330° |
| 2026-05-04 15:09 | 44.72035 | 0.32795 | 39915 ft | 421 kts | 330° |
| 2026-05-04 15:10 | 44.79984 | 0.27471 | 39921 ft | 425 kts | 330° |
| 2026-05-04 15:11 | 44.87992 | 0.22095 | 39912 ft | 423 kts | 330° |
| 2026-05-04 15:11 | 44.93292 | 0.18525 | 39908 ft | 422 kts | 330° |
| 2026-05-04 15:12 | 44.98599 | 0.14944 | 39914 ft | 423 kts | 330° |
| 2026-05-04 15:12 | 45.03925 | 0.11343 | 39917 ft | 425 kts | 330° |
| 2026-05-04 15:13 | 45.09305 | 0.07696 | 39917 ft | 432 kts | 330° |
| 2026-05-04 15:13 | 45.14722 | 0.04020 | 39920 ft | 430 kts | 330° |
| 2026-05-04 15:13 | 45.17360 | 0.02228 | 40111 ft | 424 kts | 330° |
| 2026-05-04 15:14 | 45.20012 | 0.00420 | 40345 ft | 422 kts | 330° |
| 2026-05-04 15:14 | 45.22653 | -0.01381 | 40579 ft | 420 kts | 330° |
| 2026-05-04 15:14 | 45.25284 | -0.03175 | 40813 ft | 418 kts | 330° |
| 2026-05-04 15:15 | 45.30557 | -0.06780 | 40908 ft | 425 kts | 330° |
| 2026-05-04 15:15 | 45.35931 | -0.10459 | 40925 ft | 431 kts | 330° |
| 2026-05-04 15:16 | 45.44005 | -0.16001 | 40923 ft | 428 kts | 330° |
| 2026-05-04 15:17 | 45.52020 | -0.21521 | 40925 ft | 427 kts | 331° |
| 2026-05-04 15:17 | 45.60083 | -0.27093 | 40935 ft | 431 kts | 331° |
| 2026-05-04 15:18 | 45.65447 | -0.30879 | 40934 ft | 427 kts | 326° |
| 2026-05-04 15:19 | 45.72470 | -0.38494 | 40940 ft | 423 kts | 318° |
| 2026-05-04 15:19 | 45.79425 | -0.46341 | 40935 ft | 426 kts | 318° |
| 2026-05-04 15:20 | 45.84079 | -0.51607 | 40943 ft | 427 kts | 318° |
| 2026-05-04 15:20 | 45.89018 | -0.56365 | 40939 ft | 430 kts | 328° |
| 2026-05-04 15:21 | 45.94266 | -0.60426 | 40946 ft | 427 kts | 327° |
| 2026-05-04 15:22 | 46.02003 | -0.66744 | 40949 ft | 428 kts | 328° |
| 2026-05-04 15:22 | 46.09830 | -0.73079 | 40953 ft | 431 kts | 327° |
| 2026-05-04 15:23 | 46.15043 | -0.77307 | 40956 ft | 428 kts | 328° |
| 2026-05-04 15:23 | 46.20212 | -0.81518 | 40957 ft | 426 kts | 327° |
| 2026-05-04 15:24 | 46.30560 | -0.89972 | 40958 ft | 429 kts | 327° |
| 2026-05-04 15:25 | 46.35742 | -0.94219 | 40956 ft | 427 kts | 328° |
| 2026-05-04 15:26 | 46.43467 | -1.00568 | 40955 ft | 425 kts | 328° |
| 2026-05-04 15:26 | 46.51220 | -1.06962 | 40965 ft | 429 kts | 328° |
| 2026-05-04 15:27 | 46.58995 | -1.13394 | 40972 ft | 428 kts | 328° |
| 2026-05-04 15:28 | 46.66728 | -1.19814 | 40971 ft | 426 kts | 328° |
| 2026-05-04 15:29 | 46.74444 | -1.26240 | 40974 ft | 426 kts | 328° |
| 2026-05-04 15:30 | 46.92496 | -1.41359 | 40969 ft | 430 kts | 328° |
| 2026-05-04 15:31 | 47.00272 | -1.47906 | 40972 ft | 428 kts | 328° |
| 2026-05-04 15:32 | 47.13133 | -1.58781 | 40976 ft | 426 kts | 328° |
| 2026-05-04 15:33 | 47.18771 | -1.61614 | 40974 ft | 434 kts | 349° |
| 2026-05-04 15:34 | 47.27792 | -1.62871 | 40973 ft | 435 kts | 353° |
| 2026-05-04 15:34 | 47.36712 | -1.64080 | 40954 ft | 426 kts | 353° |
| 2026-05-04 15:35 | 47.45591 | -1.65355 | 40955 ft | 430 kts | 353° |
| 2026-05-04 15:36 | 47.54501 | -1.66619 | 40952 ft | 428 kts | 353° |
| 2026-05-04 15:36 | 47.60416 | -1.67463 | 40947 ft | 426 kts | 353° |
| 2026-05-04 15:37 | 47.66313 | -1.68307 | 40946 ft | 425 kts | 353° |
| 2026-05-04 15:37 | 47.72192 | -1.69151 | 40949 ft | 424 kts | 353° |
| 2026-05-04 15:38 | 47.78070 | -1.69995 | 40957 ft | 425 kts | 353° |
| 2026-05-04 15:38 | 47.83976 | -1.70847 | 40967 ft | 427 kts | 353° |
| 2026-05-04 15:39 | 47.89906 | -1.71702 | 40973 ft | 428 kts | 353° |
| 2026-05-04 15:40 | 47.98785 | -1.72988 | 40968 ft | 425 kts | 353° |
| 2026-05-04 15:40 | 48.04657 | -1.73841 | 40962 ft | 424 kts | 353° |
| 2026-05-04 15:41 | 48.10521 | -1.74219 | 40964 ft | 426 kts | 359° |
| 2026-05-04 15:41 | 48.16456 | -1.74280 | 40970 ft | 428 kts | 358° |
| 2026-05-04 15:42 | 48.22425 | -1.74360 | 40968 ft | 430 kts | 359° |
| 2026-05-04 15:42 | 48.28360 | -1.74425 | 40957 ft | 422 kts | 358° |
| 2026-05-04 15:43 | 48.34252 | -1.74500 | 40961 ft | 425 kts | 358° |
| 2026-05-04 15:43 | 48.40194 | -1.74570 | 40977 ft | 427 kts | 358° |
| 2026-05-04 15:44 | 48.46128 | -1.74643 | 40977 ft | 424 kts | 359° |
| 2026-05-04 15:44 | 48.52018 | -1.74714 | 40978 ft | 422 kts | 359° |
| 2026-05-04 15:45 | 48.57896 | -1.74787 | 40978 ft | 423 kts | 359° |
| 2026-05-04 15:45 | 48.63803 | -1.74859 | 40985 ft | 425 kts | 359° |
| 2026-05-04 15:46 | 48.69733 | -1.74932 | 40987 ft | 426 kts | 359° |
| 2026-05-04 15:46 | 48.75619 | -1.75004 | 40989 ft | 425 kts | 359° |
| 2026-05-04 15:47 | 48.81521 | -1.75077 | 40983 ft | 424 kts | 359° |
| 2026-05-04 15:47 | 48.87416 | -1.75150 | 40979 ft | 423 kts | 359° |
| 2026-05-04 15:48 | 48.93289 | -1.75098 | 40978 ft | 422 kts | 1° |
| 2026-05-04 15:48 | 49.02160 | -1.74781 | 40985 ft | 427 kts | 1° |
| 2026-05-04 15:49 | 49.08093 | -1.74542 | 40987 ft | 425 kts | 0° |
| 2026-05-04 15:49 | 49.13996 | -1.74322 | 40987 ft | 424 kts | 0° |
| 2026-05-04 15:50 | 49.19882 | -1.74094 | 40986 ft | 422 kts | 0° |
| 2026-05-04 15:50 | 49.25752 | -1.73870 | 40985 ft | 422 kts | 0° |
| 2026-05-04 15:51 | 49.31629 | -1.73644 | 40988 ft | 423 kts | 0° |
| 2026-05-04 15:51 | 49.37516 | -1.73417 | 40992 ft | 423 kts | 0° |
| 2026-05-04 15:52 | 49.43405 | -1.73189 | 40993 ft | 423 kts | 0° |
| 2026-05-04 15:52 | 49.49292 | -1.72961 | 40999 ft | 423 kts | 0° |
| 2026-05-04 15:53 | 49.55139 | -1.72734 | 41000 ft | 423 kts | 0° |
| 2026-05-04 15:53 | 49.61020 | -1.72444 | 41002 ft | 422 kts | 2° |
| 2026-05-04 15:54 | 49.66888 | -1.71951 | 40997 ft | 422 kts | 2° |
| 2026-05-04 15:54 | 49.72743 | -1.71465 | 40999 ft | 421 kts | 2° |
| 2026-05-04 15:55 | 49.78589 | -1.70965 | 41000 ft | 421 kts | 2° |
| 2026-05-04 15:55 | 49.84459 | -1.70473 | 41002 ft | 423 kts | 2° |
| 2026-05-04 15:56 | 49.90351 | -1.69971 | 40993 ft | 425 kts | 2° |
| 2026-05-04 15:56 | 49.92316 | -1.69804 | 40716 ft | 430 kts | 2° |
| 2026-05-04 15:56 | 49.95316 | -1.69549 | 39813 ft | 433 kts | 2° |
| 2026-05-04 15:57 | 49.98323 | -1.69285 | 38858 ft | 433 kts | 4° |
| 2026-05-04 15:57 | 50.01297 | -1.68509 | 37729 ft | 433 kts | 15° |
| 2026-05-04 15:57 | 50.04174 | -1.67143 | 36622 ft | 431 kts | 18° |
| 2026-05-04 15:57 | 50.07030 | -1.65749 | 35557 ft | 429 kts | 18° |
| 2026-05-04 15:58 | 50.09871 | -1.64374 | 34534 ft | 426 kts | 18° |
| 2026-05-04 15:58 | 50.12699 | -1.63010 | 33457 ft | 423 kts | 18° |
| 2026-05-04 15:58 | 50.15495 | -1.61654 | 32302 ft | 420 kts | 18° |
| 2026-05-04 15:58 | 50.18277 | -1.60299 | 31242 ft | 417 kts | 19° |
| 2026-05-04 15:59 | 50.21035 | -1.58957 | 30204 ft | 415 kts | 19° |
| 2026-05-04 15:59 | 50.23794 | -1.57611 | 29377 ft | 411 kts | 19° |
| 2026-05-04 15:59 | 50.26532 | -1.56278 | 28874 ft | 419 kts | 19° |
| 2026-05-04 15:59 | 50.29331 | -1.54907 | 28306 ft | 422 kts | 18° |
| 2026-05-04 16:00 | 50.32136 | -1.53538 | 27749 ft | 422 kts | 18° |
| 2026-05-04 16:00 | 50.34941 | -1.52167 | 27188 ft | 421 kts | 18° |
| 2026-05-04 16:00 | 50.37724 | -1.50802 | 26633 ft | 417 kts | 18° |
| 2026-05-04 16:00 | 50.40440 | -1.49467 | 26092 ft | 412 kts | 17° |
| 2026-05-04 16:01 | 50.43161 | -1.48131 | 25550 ft | 407 kts | 17° |
| 2026-05-04 16:01 | 50.45880 | -1.46794 | 25016 ft | 417 kts | 17° |
| 2026-05-04 16:01 | 50.48644 | -1.45431 | 24466 ft | 415 kts | 17° |
| 2026-05-04 16:01 | 50.51402 | -1.44072 | 23915 ft | 414 kts | 17° |
| 2026-05-04 16:02 | 50.54103 | -1.42568 | 23323 ft | 411 kts | 24° |
| 2026-05-04 16:02 | 50.56603 | -1.40465 | 22786 ft | 405 kts | 28° |
| 2026-05-04 16:02 | 50.61526 | -1.36260 | 21718 ft | 400 kts | 28° |
| 2026-05-04 16:03 | 50.63956 | -1.34172 | 21189 ft | 396 kts | 28° |
| 2026-05-04 16:03 | 50.66353 | -1.32102 | 20669 ft | 391 kts | 28° |
| 2026-05-04 16:03 | 50.68728 | -1.30057 | 20161 ft | 387 kts | 29° |
| 2026-05-04 16:03 | 50.71081 | -1.28027 | 19651 ft | 384 kts | 29° |
| 2026-05-04 16:04 | 50.73414 | -1.26013 | 19143 ft | 380 kts | 29° |
| 2026-05-04 16:04 | 50.77936 | -1.21859 | 18129 ft | 372 kts | 34° |
| 2026-05-04 16:04 | 50.80082 | -1.19614 | 17625 ft | 369 kts | 34° |
| 2026-05-04 16:05 | 50.82222 | -1.17397 | 17139 ft | 366 kts | 34° |
| 2026-05-04 16:05 | 50.84350 | -1.15216 | 16652 ft | 363 kts | 34° |
| 2026-05-04 16:05 | 50.88566 | -1.10865 | 15709 ft | 360 kts | 34° |
| 2026-05-04 16:06 | 50.90654 | -1.08700 | 15233 ft | 357 kts | 34° |
| 2026-05-04 16:06 | 50.96161 | -1.02992 | 13978 ft | 350 kts | 33° |
| 2026-05-04 16:07 | 50.98841 | -1.00204 | 13342 ft | 346 kts | 33° |
| 2026-05-04 16:07 | 51.03959 | -0.92361 | 12857 ft | 338 kts | 49° |
| 2026-05-04 16:08 | 51.05552 | -0.89526 | 12660 ft | 343 kts | 49° |
| 2026-05-04 16:08 | 51.10265 | -0.81125 | 11617 ft | 336 kts | 49° |
| 2026-05-04 16:09 | 51.13362 | -0.75587 | 10914 ft | 333 kts | 49° |
| 2026-05-04 16:09 | 51.16389 | -0.70168 | 10220 ft | 312 kts | 49° |
| 2026-05-04 16:10 | 51.19147 | -0.65216 | 9578 ft | 291 kts | 49° |
| 2026-05-04 16:11 | 51.23159 | -0.57999 | 8660 ft | 289 kts | 49° |
| 2026-05-04 16:11 | 51.24487 | -0.55600 | 8358 ft | 288 kts | 49° |
| 2026-05-04 16:12 | 51.28421 | -0.48492 | 7459 ft | 281 kts | 49° |
| 2026-05-04 16:12 | 51.32467 | -0.42959 | 6661 ft | 245 kts | 29° |
| 2026-05-04 16:13 | 51.35409 | -0.40284 | 6144 ft | 242 kts | 29° |
| 2026-05-04 16:13 | 51.38324 | -0.37645 | 5639 ft | 240 kts | 29° |
| 2026-05-04 16:14 | 51.41214 | -0.35024 | 5120 ft | 238 kts | 29° |
| 2026-05-04 16:14 | 51.44064 | -0.32435 | 4609 ft | 233 kts | 29° |
| 2026-05-04 16:15 | 51.48244 | -0.28630 | 3884 ft | 228 kts | 29° |
| 2026-05-04 16:16 | 51.50987 | -0.26128 | 3387 ft | 225 kts | 29° |
| 2026-05-04 16:16 | 51.55110 | -0.22989 | 2673 ft | 210 kts | 2° |
| 2026-05-04 16:17 | 51.57563 | -0.24743 | 2258 ft | 187 kts | 313° |
| 2026-05-04 16:18 | 51.57884 | -0.30558 | 1782 ft | 186 kts | 251° |
| 2026-05-04 16:18 | 51.57425 | -0.32567 | 1485 ft | 189 kts | 252° |
| 2026-05-04 16:19 | 51.56259 | -0.37639 | 640 ft | 135 kts | 253° |
| 2026-05-04 16:19 | 51.55643 | -0.40355 | 273 ft | 132 kts | 253° |
| 2026-05-04 16:20 | 51.55149 | -0.42415 | 124 ft | 7 kts | 168° |
| 2026-05-04 16:20 | 51.55081 | -0.42328 | 125 ft | 0 kts | 134° |
| 2026-05-04 16:22 | 51.55037 | -0.42223 | 118 ft | 16 kts | 116° |
| 2026-05-04 16:22 | 51.55049 | -0.41874 | 114 ft | 9 kts | 135° |
| 2026-05-04 16:23 | 51.55059 | -0.41845 | 117 ft | 5 kts | 339° |
| 2026-05-04 16:24 | 51.55037 | -0.41823 | 113 ft | 0 kts | 91° |